Time;durP1;ratioP1;P1;durP2;ratioP2;P2;SDS_P1;SDS_P2;PMS_P1;PMS_P2;Temp;Humidity;BMP_temperature;BMP_pressure;BME280_temperature;BME280_humidity;BME280_pressure;Samples;Min_cycle;Max_cycle;Signal;HPM_P1;HPM_P2
2023/08/19 00:00:39;;;;;;;5.43;3.63;;;23.50;99.90;;;;;;5014330;28;20030;-45
2023/08/19 00:03:05;;;;;;;6.60;3.65;;;23.60;99.90;;;;;;5014926;28;20091;-45
2023/08/19 00:05:30;;;;;;;12.02;3.88;;;23.50;99.90;;;;;;5015126;28;20053;-46
2023/08/19 00:07:56;;;;;;;10.45;3.50;;;23.40;99.90;;;;;;5014846;28;20018;-46
2023/08/19 00:10:21;;;;;;;7.40;3.15;;;23.40;99.90;;;;;;5014621;28;20489;-46
2023/08/19 00:12:47;;;;;;;8.95;3.30;;;23.40;99.90;;;;;;5014640;28;20030;-48
2023/08/19 00:15:13;;;;;;;8.50;3.35;;;23.30;99.90;;;;;;5014816;28;20080;-46
2023/08/19 00:17:38;;;;;;;3.90;3.17;;;23.30;99.90;;;;;;5014809;28;20113;-45
2023/08/19 00:20:06;;;;;;;8.13;3.45;;;23.20;99.90;;;;;;5014207;28;20026;-46
2023/08/19 00:22:31;;;;;;;6.85;3.60;;;23.20;99.90;;;;;;5014347;28;20030;-47
2023/08/19 00:24:57;;;;;;;9.88;4.57;;;23.10;99.90;;;;;;5014918;28;20034;-46
2023/08/19 00:27:22;;;;;;;3.90;3.50;;;23.10;99.90;;;;;;5014801;28;20073;-46
2023/08/19 00:29:48;;;;;;;4.25;3.20;;;23.10;99.90;;;;;;5014344;28;20065;-46
2023/08/19 00:32:14;;;;;;;10.90;4.00;;;23.10;99.90;;;;;;5015049;28;20030;-48
2023/08/19 00:34:39;;;;;;;7.45;3.65;;;23.10;99.90;;;;;;5014053;28;20026;-50
2023/08/19 00:37:07;;;;;;;3.72;3.40;;;23.00;99.90;;;;;;5014507;28;20060;-55
2023/08/19 00:39:33;;;;;;;8.05;3.45;;;22.90;99.90;;;;;;5015881;28;20018;-51
2023/08/19 00:41:58;;;;;;;7.28;3.58;;;22.90;99.90;;;;;;5014406;28;20079;-50
2023/08/19 00:44:24;;;;;;;9.20;4.53;;;22.90;99.90;;;;;;5014038;28;20057;-48
2023/08/19 00:46:50;;;;;;;4.03;3.70;;;22.90;99.90;;;;;;5014420;28;20022;-52
2023/08/19 00:49:15;;;;;;;7.32;4.13;;;22.90;99.90;;;;;;5013840;28;20030;-49
2023/08/19 00:51:41;;;;;;;4.40;3.63;;;22.90;99.90;;;;;;5014179;28;20025;-52
2023/08/19 00:54:06;;;;;;;8.18;3.63;;;23.00;99.90;;;;;;5014224;28;20030;-47
2023/08/19 00:56:32;;;;;;;14.75;4.18;;;23.00;99.90;;;;;;5014047;28;20105;-49
2023/08/19 00:58:58;;;;;;;6.45;3.50;;;22.90;99.90;;;;;;5013888;28;20026;-49
2023/08/19 01:01:23;;;;;;;8.68;3.63;;;22.90;99.90;;;;;;5013522;28;20141;-48
2023/08/19 01:03:49;;;;;;;11.07;3.10;;;22.80;99.90;;;;;;5013813;28;20093;-48
2023/08/19 01:06:27;;;;;;;7.45;3.78;;;22.80;99.90;;;;;;5013984;28;20022;-48
2023/08/19 01:09:11;;;;;;;5.90;3.92;;;22.70;99.90;;;;;;5013696;28;20089;-50
2023/08/19 01:11:37;;;;;;;8.80;3.90;;;22.70;99.90;;;;;;5013777;28;20030;-51
2023/08/19 01:14:15;;;;;;;8.23;4.25;;;22.70;99.90;;;;;;5013587;28;20072;-49
2023/08/19 01:16:43;;;;;;;9.90;3.38;;;22.80;99.90;;;;;;5013718;28;20116;-48
2023/08/19 01:19:20;;;;;;;10.65;4.00;;;22.80;99.90;;;;;;5013367;28;20033;-54
2023/08/19 01:21:46;;;;;;;6.68;3.63;;;22.80;99.90;;;;;;5013428;28;20442;-51
2023/08/19 01:24:14;;;;;;;11.88;3.78;;;22.80;99.90;;;;;;5013497;28;20056;-49
2023/08/19 01:26:40;;;;;;;5.95;4.15;;;22.80;99.90;;;;;;5013383;28;20021;-49
2023/08/19 01:29:05;;;;;;;6.35;3.75;;;22.80;99.90;;;;;;5013284;28;20076;-47
2023/08/19 01:31:31;;;;;;;9.95;4.30;;;22.80;99.90;;;;;;5013218;28;20029;-48
2023/08/19 01:33:56;;;;;;;5.32;4.07;;;22.80;99.90;;;;;;5013367;28;20030;-48
2023/08/19 01:36:29;;;;;;;6.60;3.95;;;22.70;99.90;;;;;;5013359;28;20030;-49
2023/08/19 01:39:03;;;;;;;4.80;4.00;;;22.70;99.90;;;;;;4995604;28;20029;-49
2023/08/19 01:41:29;;;;;;;8.70;4.28;;;22.70;99.90;;;;;;5012761;28;20445;-50
2023/08/19 01:43:59;;;;;;;7.15;3.88;;;22.70;99.90;;;;;;5012809;28;20032;-50
2023/08/19 01:46:25;;;;;;;8.50;4.10;;;22.70;99.90;;;;;;5012265;28;20421;-52
2023/08/19 01:48:51;;;;;;;4.22;3.75;;;22.70;99.90;;;;;;5012866;28;20018;-52
2023/08/19 01:51:16;;;;;;;8.02;3.67;;;22.60;99.90;;;;;;5012714;28;20025;-51
2023/08/19 01:53:42;;;;;;;8.10;3.40;;;22.60;99.90;;;;;;5013093;28;20029;-49
2023/08/19 01:56:08;;;;;;;4.68;3.72;;;22.60;99.90;;;;;;5012886;28;20060;-48
2023/08/19 01:58:33;;;;;;;17.85;4.47;;;22.60;99.90;;;;;;5012827;28;20053;-48
2023/08/19 02:00:59;;;;;;;6.40;4.13;;;22.60;99.90;;;;;;5012454;28;20034;-48
2023/08/19 02:03:24;;;;;;;8.65;3.88;;;22.60;99.90;;;;;;5012963;28;20037;-49
2023/08/19 02:05:50;;;;;;;10.85;3.58;;;22.60;99.90;;;;;;5012867;28;20112;-48
2023/08/19 02:08:15;;;;;;;11.07;3.40;;;22.60;99.90;;;;;;5012928;28;20393;-49
2023/08/19 02:10:42;;;;;;;5.85;3.50;;;22.60;99.90;;;;;;5012581;28;20029;-48
2023/08/19 02:13:08;;;;;;;8.48;4.13;;;22.60;99.90;;;;;;5012731;28;20511;-47
2023/08/19 02:15:34;;;;;;;5.95;4.07;;;22.60;99.90;;;;;;5012611;28;20037;-53
2023/08/19 02:17:59;;;;;;;4.82;3.50;;;22.50;99.90;;;;;;5012562;28;20405;-50
2023/08/19 02:20:25;;;;;;;6.60;4.30;;;22.50;99.90;;;;;;5012578;28;20021;-47
2023/08/19 02:22:50;;;;;;;8.93;4.18;;;22.40;99.90;;;;;;5012662;28;20030;-47
2023/08/19 02:25:16;;;;;;;6.78;3.88;;;22.40;99.90;;;;;;5012388;28;20380;-52
2023/08/19 02:27:42;;;;;;;6.07;3.78;;;22.30;99.90;;;;;;5012505;28;20022;-48
2023/08/19 02:30:10;;;;;;;12.20;4.00;;;22.20;99.90;;;;;;5012177;28;20351;-47
2023/08/19 02:32:35;;;;;;;8.27;4.32;;;22.20;99.90;;;;;;5012401;28;20036;-50
2023/08/19 02:35:01;;;;;;;13.60;3.92;;;22.10;99.90;;;;;;5012194;28;20025;-47
2023/08/19 02:37:27;;;;;;;9.55;5.22;;;22.20;99.90;;;;;;5012278;28;20034;-48
2023/08/19 02:39:52;;;;;;;8.32;4.15;;;22.20;99.90;;;;;;5011842;28;20473;-47
2023/08/19 02:42:18;;;;;;;7.53;4.30;;;22.20;99.90;;;;;;5012129;28;20029;-48
2023/08/19 02:44:43;;;;;;;5.25;4.45;;;22.20;99.90;;;;;;5011912;28;20500;-49
2023/08/19 02:47:09;;;;;;;5.32;3.80;;;22.20;99.90;;;;;;5012021;28;20021;-49
2023/08/19 02:49:36;;;;;;;10.77;3.92;;;22.20;99.90;;;;;;5011782;28;20037;-50
2023/08/19 02:52:02;;;;;;;8.70;3.67;;;22.10;99.90;;;;;;5012006;28;20366;-49
2023/08/19 02:54:28;;;;;;;4.10;2.97;;;22.00;99.90;;;;;;5011953;28;20026;-47
2023/08/19 02:56:53;;;;;;;10.02;4.00;;;21.90;99.90;;;;;;5011957;28;20026;-48
2023/08/19 02:59:19;;;;;;;6.25;4.10;;;21.90;99.90;;;;;;5011418;28;20026;-51
2023/08/19 03:01:44;;;;;;;8.50;3.45;;;21.90;99.90;;;;;;5011649;28;20033;-49
2023/08/19 03:04:10;;;;;;;9.07;3.70;;;21.90;99.90;;;;;;5012076;28;20029;-49
2023/08/19 03:06:35;;;;;;;7.97;4.07;;;21.90;99.90;;;;;;5011820;28;20026;-48
2023/08/19 03:09:01;;;;;;;8.82;4.25;;;21.80;99.90;;;;;;5011696;28;20034;-50
2023/08/19 03:11:27;;;;;;;6.90;3.50;;;21.80;99.90;;;;;;5011449;28;20030;-51
2023/08/19 03:13:52;;;;;;;8.30;3.85;;;21.80;99.90;;;;;;5011706;28;20026;-48
2023/08/19 03:16:18;;;;;;;4.05;3.17;;;21.80;99.90;;;;;;5011570;28;20046;-48
2023/08/19 03:18:43;;;;;;;8.02;3.42;;;21.80;99.90;;;;;;5011584;28;20036;-48
2023/08/19 03:21:09;;;;;;;8.02;3.80;;;21.80;99.90;;;;;;5011604;28;20036;-49
2023/08/19 03:23:34;;;;;;;6.53;3.55;;;21.80;99.90;;;;;;5011642;28;20026;-48
2023/08/19 03:26:00;;;;;;;4.18;3.65;;;21.80;99.90;;;;;;5011654;28;20026;-47
2023/08/19 03:28:26;;;;;;;10.32;3.55;;;21.80;99.90;;;;;;5011645;28;20068;-51
2023/08/19 03:30:51;;;;;;;13.60;4.28;;;21.80;99.90;;;;;;5011205;28;20038;-47
2023/08/19 03:33:17;;;;;;;7.00;3.75;;;21.80;99.90;;;;;;5011544;28;20022;-51
2023/08/19 03:35:43;;;;;;;9.95;4.43;;;21.70;99.90;;;;;;5011554;28;20030;-52
2023/08/19 03:38:08;;;;;;;8.60;4.43;;;21.70;99.90;;;;;;5011503;28;20046;-48
2023/08/19 03:40:34;;;;;;;8.23;4.15;;;21.70;99.90;;;;;;5011150;28;20026;-50
2023/08/19 03:42:59;;;;;;;5.53;3.70;;;21.70;99.90;;;;;;5011054;28;20117;-54
2023/08/19 03:45:24;;;;;;;9.88;4.68;;;21.70;99.90;;;;;;5011555;28;20026;-49
2023/08/19 03:47:50;;;;;;;8.98;3.95;;;21.80;99.90;;;;;;5011506;28;20121;-51
2023/08/19 03:50:15;;;;;;;5.80;4.45;;;21.90;99.90;;;;;;5011152;28;20038;-50
2023/08/19 03:52:41;;;;;;;5.38;3.80;;;21.90;99.90;;;;;;5011292;28;20026;-49
2023/08/19 03:55:07;;;;;;;6.95;3.83;;;22.00;99.90;;;;;;5011300;28;20026;-49
2023/08/19 03:57:33;;;;;;;11.20;4.35;;;22.00;99.90;;;;;;5011357;28;20030;-48
2023/08/19 03:59:58;;;;;;;4.18;3.83;;;22.00;99.90;;;;;;5010943;28;20504;-48
2023/08/19 04:02:24;;;;;;;5.88;4.38;;;21.90;99.90;;;;;;5011209;28;20034;-49
2023/08/19 04:04:57;;;;;;;11.13;3.97;;;21.80;99.90;;;;;;5011364;28;20069;-48
2023/08/19 04:07:23;;;;;;;5.97;4.38;;;21.80;99.90;;;;;;5011794;28;20109;-51
2023/08/19 04:09:48;;;;;;;7.40;3.88;;;21.80;99.90;;;;;;5012693;28;20105;-48
2023/08/19 04:12:15;;;;;;;7.45;4.28;;;21.70;99.90;;;;;;5015183;28;20036;-48
2023/08/19 04:14:41;;;;;;;6.32;4.63;;;21.80;99.90;;;;;;5015192;28;20087;-50
2023/08/19 04:17:07;;;;;;;4.60;3.80;;;21.80;99.90;;;;;;4997604;28;20424;-48
2023/08/19 04:19:33;;;;;;;4.20;3.80;;;21.80;99.90;;;;;;5014974;28;20026;-47
2023/08/19 04:21:58;;;;;;;9.13;4.07;;;21.80;99.90;;;;;;5014831;28;20026;-49
2023/08/19 04:24:24;;;;;;;4.70;3.67;;;21.80;99.90;;;;;;5014516;28;20022;-48
2023/08/19 04:26:49;;;;;;;8.13;4.03;;;21.80;99.90;;;;;;5014724;28;20018;-51
2023/08/19 04:29:15;;;;;;;8.23;3.90;;;21.80;99.90;;;;;;5014358;28;20425;-50
2023/08/19 04:31:40;;;;;;;4.90;3.67;;;21.70;99.90;;;;;;5014527;28;20034;-50
2023/08/19 04:34:06;;;;;;;7.80;4.32;;;21.70;99.90;;;;;;5014535;28;20029;-51
2023/08/19 04:36:31;;;;;;;7.18;4.45;;;21.70;99.90;;;;;;5014540;28;20104;-50
2023/08/19 04:38:57;;;;;;;7.00;3.63;;;21.70;99.90;;;;;;5014347;28;20485;-50
2023/08/19 04:41:22;;;;;;;5.80;4.25;;;21.60;99.90;;;;;;5014041;28;20037;-48
2023/08/19 04:43:48;;;;;;;5.10;4.15;;;21.70;99.90;;;;;;5014034;28;20430;-51
2023/08/19 04:46:13;;;;;;;8.40;3.80;;;21.70;99.90;;;;;;5014397;28;20501;-49
2023/08/19 04:48:39;;;;;;;8.32;3.80;;;21.70;99.90;;;;;;5014229;28;20053;-50
2023/08/19 04:51:04;;;;;;;7.57;4.40;;;21.70;99.90;;;;;;5013885;28;20064;-49
2023/08/19 04:53:30;;;;;;;8.07;4.40;;;21.70;99.90;;;;;;5014034;28;20033;-48
2023/08/19 04:56:02;;;;;;;11.85;4.20;;;21.70;99.90;;;;;;5014108;28;20032;-48
2023/08/19 04:58:27;;;;;;;6.30;4.03;;;21.80;99.90;;;;;;5014018;28;20589;-48
2023/08/19 05:00:53;;;;;;;9.63;4.35;;;21.70;99.90;;;;;;5013469;28;20026;-49
2023/08/19 05:03:18;;;;;;;6.28;5.03;;;21.80;99.90;;;;;;5014020;28;20477;-48
2023/08/19 05:05:44;;;;;;;6.80;3.95;;;21.80;99.90;;;;;;5013910;28;20046;-49
2023/08/19 05:08:10;;;;;;;6.75;3.58;;;21.80;99.90;;;;;;5013828;28;20025;-48
2023/08/19 05:10:36;;;;;;;14.35;4.18;;;21.90;99.90;;;;;;5013620;28;20105;-48
2023/08/19 05:13:02;;;;;;;4.88;4.20;;;21.90;99.90;;;;;;5013736;28;20036;-48
2023/08/19 05:15:27;;;;;;;5.93;3.40;;;22.00;99.90;;;;;;5013809;28;20026;-50
2023/08/19 05:17:53;;;;;;;11.85;3.90;;;22.10;99.90;;;;;;5013757;28;20033;-48
2023/08/19 05:20:19;;;;;;;8.27;3.78;;;22.30;99.90;;;;;;5013107;28;20034;-49
2023/08/19 05:22:44;;;;;;;5.43;3.30;;;22.50;99.90;;;;;;5013434;28;20036;-48
2023/08/19 05:25:10;;;;;;;6.90;3.65;;;22.90;99.90;;;;;;5013496;28;20041;-47
2023/08/19 05:27:36;;;;;;;5.22;2.80;;;23.40;99.90;;;;;;5013472;28;20029;-48
2023/08/19 05:30:04;;;;;;;12.02;3.53;;;23.90;99.90;;;;;;5013153;28;20075;-50
2023/08/19 05:32:30;;;;;;;4.38;3.65;;;24.30;99.90;;;;;;5013456;28;20061;-48
2023/08/19 05:34:55;;;;;;;4.47;3.75;;;24.50;99.90;;;;;;5013298;28;20061;-48
2023/08/19 05:37:21;;;;;;;5.18;3.45;;;24.40;99.90;;;;;;5013259;28;20030;-47
2023/08/19 05:39:47;;;;;;;3.50;3.20;;;24.30;99.90;;;;;;5013002;28;20029;-49
2023/08/19 05:42:12;;;;;;;9.25;3.38;;;24.10;99.90;;;;;;5013431;28;20029;-47
2023/08/19 05:44:38;;;;;;;4.68;3.97;;;23.90;99.90;;;;;;5012917;28;20026;-47
2023/08/19 05:47:03;;;;;;;6.50;3.67;;;23.80;99.90;;;;;;5013000;28;20041;-49
2023/08/19 05:49:29;;;;;;;5.82;3.00;;;23.80;99.90;;;;;;5012798;28;20497;-48
2023/08/19 05:51:55;;;;;;;4.78;3.00;;;24.00;99.90;;;;;;5012933;28;20053;-48
2023/08/19 05:54:20;;;;;;;4.70;3.00;;;24.20;99.90;;;;;;5013089;28;20018;-47
2023/08/19 05:56:46;;;;;;;7.65;3.25;;;24.40;99.90;;;;;;5012970;28;20492;-48
2023/08/19 05:59:11;;;;;;;5.15;3.40;;;24.40;99.90;;;;;;5012554;28;20097;-48
2023/08/19 06:01:37;;;;;;;13.00;3.63;;;24.40;99.90;;;;;;4994994;28;20053;-47
2023/08/19 06:04:03;;;;;;;4.72;3.28;;;24.40;99.90;;;;;;5013047;28;20037;-49
2023/08/19 06:06:28;;;;;;;8.82;2.97;;;24.30;99.90;;;;;;5012731;28;20033;-50
2023/08/19 06:08:54;;;;;;;8.07;3.60;;;24.40;99.90;;;;;;5012643;28;20393;-47
2023/08/19 06:11:19;;;;;;;4.22;3.10;;;24.60;99.90;;;;;;5012475;28;20596;-48
2023/08/19 06:13:45;;;;;;;5.90;3.45;;;24.80;99.90;;;;;;5012734;28;20038;-48
2023/08/19 06:16:10;;;;;;;5.63;3.20;;;25.10;99.90;;;;;;5012495;28;20064;-49
2023/08/19 06:18:36;;;;;;;7.00;3.38;;;25.30;99.90;;;;;;5012365;28;20084;-47
2023/08/19 06:21:03;;;;;;;5.78;3.15;;;25.50;99.90;;;;;;5012245;28;20160;-49
2023/08/19 06:23:28;;;;;;;6.63;2.90;;;25.70;99.90;;;;;;5012451;28;20033;-50
2023/08/19 06:25:54;;;;;;;8.10;3.28;;;26.10;99.90;;;;;;5012444;28;20026;-47
2023/08/19 06:28:21;;;;;;;9.30;4.15;;;26.30;99.90;;;;;;5012362;28;20033;-47
2023/08/19 06:30:47;;;;;;;4.03;3.08;;;26.30;99.90;;;;;;5012554;28;20109;-48
2023/08/19 06:33:14;;;;;;;3.15;2.85;;;26.30;99.90;;;;;;5011947;28;20465;-49
2023/08/19 06:35:40;;;;;;;9.20;3.25;;;26.50;99.90;;;;;;5012297;28;20033;-47
2023/08/19 06:38:15;;;;;;;7.85;3.50;;;26.70;99.90;;;;;;5012281;28;20036;-47
2023/08/19 06:40:58;;;;;;;6.13;3.35;;;27.00;99.90;;;;;;4994470;28;20068;-48
2023/08/19 06:43:26;;;;;;;4.60;3.10;;;27.50;99.90;;;;;;5011756;28;20081;-49
2023/08/19 06:45:53;;;;;;;3.35;2.85;;;28.00;99.90;;;;;;5012122;28;20519;-52
2023/08/19 06:48:21;;;;;;;6.13;2.95;;;28.70;99.90;;;;;;5012037;28;20053;-48
2023/08/19 06:50:47;;;;;;;4.32;3.00;;;29.20;99.90;;;;;;5011666;28;20429;-48
2023/08/19 06:53:13;;;;;;;5.68;2.92;;;29.80;99.90;;;;;;5012047;28;20068;-50
2023/08/19 06:55:41;;;;;;;7.18;2.67;;;30.60;99.90;;;;;;5011970;28;20026;-48
2023/08/19 06:58:12;;;;;;;3.55;2.40;;;31.50;99.90;;;;;;5012011;28;20038;-49
2023/08/19 07:00:40;;;;;;;7.32;2.72;;;32.20;99.30;;;;;;5011611;28;20030;-50
2023/08/19 07:03:06;;;;;;;11.43;3.50;;;32.70;97.80;;;;;;5011853;28;20030;-48
2023/08/19 07:05:32;;;;;;;6.30;2.60;;;32.50;97.30;;;;;;5011776;28;20418;-50
2023/08/19 07:07:59;;;;;;;4.30;2.55;;;32.30;97.60;;;;;;5011555;28;20560;-50
2023/08/19 07:10:25;;;;;;;6.20;2.40;;;32.30;97.80;;;;;;5011471;28;20061;-52
2023/08/19 07:12:51;;;;;;;6.53;2.60;;;32.90;97.10;;;;;;5011879;28;20092;-49
2023/08/19 07:15:17;;;;;;;8.00;2.25;;;33.30;96.80;;;;;;5011675;28;20026;-50
2023/08/19 07:17:47;;;;;;;5.72;2.80;;;33.50;96.30;;;;;;5011691;28;20064;-48
2023/08/19 07:20:21;;;;;;;8.52;2.80;;;33.80;95.80;;;;;;5011221;28;20108;-50
2023/08/19 07:22:49;;;;;;;3.28;2.22;;;33.90;95.80;;;;;;5011745;28;20022;-49
2023/08/19 07:25:15;;;;;;;4.20;1.95;;;34.00;95.10;;;;;;5011601;28;20156;-48
2023/08/19 07:27:44;;;;;;;5.55;2.53;;;33.80;95.00;;;;;;5011639;28;20555;-51
2023/08/19 07:30:11;;;;;;;4.32;2.20;;;34.10;95.10;;;;;;5011417;28;20056;-49
2023/08/19 07:32:38;;;;;;;6.55;2.50;;;33.80;94.90;;;;;;5011547;28;20022;-49
2023/08/19 07:35:04;;;;;;;4.43;2.30;;;33.60;95.20;;;;;;5011432;28;20022;-50
2023/08/19 07:37:30;;;;;;;2.50;2.13;;;33.30;95.40;;;;;;5011967;28;20049;-51
2023/08/19 07:39:56;;;;;;;5.50;2.47;;;33.00;96.30;;;;;;5011253;28;20482;-50
2023/08/19 07:42:22;;;;;;;7.70;2.70;;;32.80;96.40;;;;;;5011472;28;20518;-50
2023/08/19 07:44:47;;;;;;;4.28;2.33;;;32.70;97.00;;;;;;5012314;28;20061;-50
2023/08/19 07:47:13;;;;;;;5.07;2.15;;;32.90;96.90;;;;;;5015330;28;20034;-51
2023/08/19 07:49:39;;;;;;;7.05;2.22;;;33.50;96.50;;;;;;5015053;28;20025;-48
2023/08/19 07:52:05;;;;;;;11.93;2.72;;;34.10;96.00;;;;;;4997764;28;20026;-50
2023/08/19 07:54:30;;;;;;;2.33;2.10;;;35.00;94.60;;;;;;5015160;28;20026;-52
2023/08/19 07:56:57;;;;;;;8.10;2.45;;;35.50;93.60;;;;;;5015327;28;20029;-53
2023/08/19 07:59:24;;;;;;;5.80;2.17;;;35.90;93.20;;;;;;5015137;28;20025;-50
2023/08/19 08:01:50;;;;;;;6.30;2.20;;;36.10;92.50;;;;;;5014897;28;20489;-50
2023/08/19 08:04:16;;;;;;;4.80;2.15;;;36.20;91.80;;;;;;5015068;28;20045;-53
2023/08/19 08:06:42;;;;;;;4.28;1.85;;;35.90;92.00;;;;;;5015422;28;20018;-49
2023/08/19 08:09:07;;;;;;;3.33;2.00;;;35.10;91.90;;;;;;5014924;28;20022;-51
2023/08/19 08:11:33;;;;;;;3.63;2.47;;;34.30;92.20;;;;;;5014873;28;20034;-51
2023/08/19 08:13:58;;;;;;;5.40;3.03;;;34.10;93.60;;;;;;5014808;28;20033;-54
2023/08/19 08:16:24;;;;;;;5.38;2.28;;;34.10;94.10;;;;;;5014785;28;20034;-52
2023/08/19 08:18:49;;;;;;;3.75;2.20;;;34.50;93.90;;;;;;5014942;28;20030;-53
2023/08/19 08:21:15;;;;;;;3.03;2.50;;;35.00;93.30;;;;;;5014581;28;20401;-54
2023/08/19 08:23:41;;;;;;;2.85;2.50;;;35.50;93.40;;;;;;5014815;28;20145;-50
2023/08/19 08:26:08;;;;;;;4.03;1.75;;;36.10;92.50;;;;;;5014805;28;20071;-49
2023/08/19 08:28:33;;;;;;;4.25;2.30;;;36.70;92.10;;;;;;5014469;28;20026;-49
2023/08/19 08:30:59;;;;;;;6.28;3.53;;;36.60;90.40;;;;;;5014308;28;20052;-54
2023/08/19 08:33:25;;;;;;;3.35;2.55;;;37.30;89.50;;;;;;5014487;28;20038;-52
2023/08/19 08:35:51;;;;;;;5.22;1.67;;;37.10;88.80;;;;;;5014551;28;20026;-50
2023/08/19 08:38:17;;;;;;;4.93;2.35;;;37.80;86.90;;;;;;5014459;28;20056;-49
2023/08/19 08:40:42;;;;;;;6.15;2.25;;;37.10;87.70;;;;;;5014120;28;20025;-49
2023/08/19 08:43:08;;;;;;;3.42;2.30;;;36.60;90.00;;;;;;5014062;28;20026;-48
2023/08/19 08:45:35;;;;;;;7.10;2.60;;;36.20;89.80;;;;;;4996725;28;20072;-49
2023/08/19 08:48:01;;;;;;;8.52;2.65;;;35.50;89.90;;;;;;5029189;28;20032;-47
2023/08/19 08:50:27;;;;;;;4.40;2.30;;;35.10;90.40;;;;;;5033743;28;20027;-48
2023/08/19 08:52:54;;;;;;;4.93;2.67;;;34.60;91.00;;;;;;5035164;28;20037;-50
2023/08/19 08:55:20;;;;;;;5.03;2.78;;;33.90;91.30;;;;;;5034694;28;20485;-53
2023/08/19 08:57:46;;;;;;;6.57;3.17;;;33.50;92.70;;;;;;5031561;28;20021;-50
2023/08/19 09:00:12;;;;;;;7.20;3.50;;;33.00;93.30;;;;;;5032147;28;20069;-50
2023/08/19 09:02:43;;;;;;;7.45;3.20;;;32.70;93.60;;;;;;5033397;28;20120;-52
2023/08/19 09:05:09;;;;;;;3.83;2.17;;;32.30;93.80;;;;;;5032901;28;20021;-50
2023/08/19 09:07:39;;;;;;;3.72;2.75;;;32.00;94.70;;;;;;5033595;28;20021;-51
2023/08/19 09:10:13;;;;;;;5.43;2.47;;;31.70;95.60;;;;;;5032698;28;20040;-50
2023/08/19 09:12:42;;;;;;;5.10;3.23;;;31.30;97.50;;;;;;5033311;28;20032;-50
2023/08/19 09:15:11;;;;;;;7.63;2.50;;;31.00;98.20;;;;;;5033458;28;20022;-51
2023/08/19 09:17:37;;;;;;;10.02;3.28;;;30.90;99.50;;;;;;5033211;28;20028;-49
2023/08/19 09:20:06;;;;;;;10.18;2.75;;;30.70;99.60;;;;;;5033000;28;20025;-49
2023/08/19 09:22:32;;;;;;;10.00;2.83;;;30.70;98.80;;;;;;5033163;28;20022;-53
2023/08/19 09:24:58;;;;;;;3.90;2.67;;;30.60;99.10;;;;;;5015471;28;20017;-49
2023/08/19 09:27:29;;;;;;;4.05;2.92;;;30.40;99.90;;;;;;5033033;28;20025;-49
2023/08/19 09:29:54;;;;;;;7.80;3.00;;;30.40;99.80;;;;;;5032921;28;20032;-51
2023/08/19 09:32:30;;;;;;;4.57;3.33;;;30.40;98.90;;;;;;5032977;28;20025;-47
2023/08/19 09:35:04;;;;;;;3.80;2.45;;;30.40;98.80;;;;;;5033071;28;20485;-51
2023/08/19 09:37:31;;;;;;;4.28;2.80;;;30.30;98.80;;;;;;5032970;28;20030;-52
2023/08/19 09:39:56;;;;;;;5.30;3.05;;;30.30;99.80;;;;;;5032887;28;20396;-49
2023/08/19 09:42:22;;;;;;;4.63;3.20;;;30.10;99.90;;;;;;5032930;28;20017;-51
2023/08/19 09:44:47;;;;;;;3.95;2.80;;;30.00;99.90;;;;;;5032878;28;20104;-54
2023/08/19 09:47:13;;;;;;;8.10;4.28;;;29.90;99.90;;;;;;5033205;28;20017;-49
2023/08/19 09:49:38;;;;;;;3.45;3.15;;;29.70;99.90;;;;;;5015138;28;20120;-50
2023/08/19 09:52:04;;;;;;;6.10;3.72;;;29.70;99.90;;;;;;5033250;28;20047;-52
2023/08/19 09:54:30;;;;;;;4.63;3.03;;;29.60;99.90;;;;;;5033361;28;20013;-54
2023/08/19 09:56:58;;;;;;;4.57;3.13;;;29.60;99.90;;;;;;5033240;28;20053;-53
2023/08/19 09:59:26;;;;;;;9.02;3.47;;;29.60;99.90;;;;;;5032369;28;20088;-51
2023/08/19 10:01:59;;;;;;;9.65;3.70;;;29.70;99.90;;;;;;5032350;28;20055;-53
2023/08/19 10:04:25;;;;;;;5.53;2.90;;;29.60;99.90;;;;;;5014552;28;20025;-51
2023/08/19 10:06:51;;;;;;;6.90;3.13;;;29.60;99.90;;;;;;5032484;28;20018;-53
2023/08/19 10:09:22;;;;;;;3.67;3.10;;;29.50;99.90;;;;;;5032000;28;20035;-51
2023/08/19 10:11:50;;;;;;;8.45;3.70;;;29.50;99.90;;;;;;5032460;28;20057;-52
2023/08/19 10:14:25;;;;;;;9.27;3.42;;;29.50;99.90;;;;;;5032235;28;20026;-50
2023/08/19 10:16:51;;;;;;;7.47;3.33;;;29.60;99.90;;;;;;5032277;28;20045;-54
2023/08/19 10:19:20;;;;;;;4.57;3.30;;;29.70;99.90;;;;;;5032120;28;20025;-53
2023/08/19 10:21:47;;;;;;;4.03;3.30;;;29.80;99.90;;;;;;5032103;28;20029;-55
2023/08/19 10:24:16;;;;;;;5.60;3.03;;;30.00;99.90;;;;;;5032278;28;20022;-55
2023/08/19 10:26:46;;;;;;;4.72;3.08;;;30.20;99.90;;;;;;5032162;28;20057;-52
2023/08/19 10:29:12;;;;;;;5.47;3.25;;;30.40;99.90;;;;;;5031915;28;20025;-50
2023/08/19 10:31:38;;;;;;;6.32;3.22;;;30.70;99.90;;;;;;5032324;28;20361;-54
2023/08/19 10:34:29;;;;;;;5.13;3.30;;;30.80;99.90;;;;;;5032066;28;20079;-52
2023/08/19 10:37:08;;;;;;;19.38;13.20;;;30.80;99.90;;;;;;5027151;28;20056;-50
2023/08/19 10:39:35;;;;;;;5.70;3.80;;;30.80;99.90;;;;;;5031583;28;20108;-53
2023/08/19 10:42:00;;;;;;;9.40;4.55;;;30.80;99.90;;;;;;5031685;28;20404;-48
2023/08/19 10:44:31;;;;;;;6.15;3.85;;;30.80;99.90;;;;;;5031471;28;20053;-54
2023/08/19 10:47:15;;;;;;;5.00;3.58;;;30.80;99.90;;;;;;5031923;28;20029;-50
2023/08/19 10:49:41;;;;;;;9.63;4.07;;;30.90;99.90;;;;;;5031405;28;20025;-47
2023/08/19 10:52:07;;;;;;;8.38;3.95;;;30.80;99.90;;;;;;5031586;28;20037;-49
2023/08/19 10:54:35;;;;;;;13.27;7.28;;;30.80;99.90;;;;;;5031616;28;20539;-53
2023/08/19 10:57:08;;;;;;;11.27;6.90;;;30.80;99.90;;;;;;5031766;28;20156;-56
2023/08/19 10:59:34;;;;;;;3.72;3.35;;;30.80;99.90;;;;;;5031318;28;20028;-53
2023/08/19 11:02:00;;;;;;;7.18;3.83;;;30.90;99.90;;;;;;5031591;28;20422;-50
2023/08/19 11:04:26;;;;;;;4.25;3.20;;;31.00;99.90;;;;;;5031760;28;20369;-49
2023/08/19 11:06:53;;;;;;;12.32;4.30;;;31.00;99.90;;;;;;5031730;28;20026;-53
2023/08/19 11:09:18;;;;;;;4.28;3.50;;;31.00;99.90;;;;;;5031157;28;20499;-49
2023/08/19 11:11:44;;;;;;;8.02;4.20;;;31.00;99.90;;;;;;5031523;28;20112;-51
2023/08/19 11:14:18;;;;;;;18.55;5.10;;;31.00;99.90;;;;;;5031220;28;20032;-49
2023/08/19 11:16:51;;;;;;;13.93;4.03;;;31.00;99.90;;;;;;5031369;28;20488;-51
2023/08/19 11:19:18;;;;;;;6.18;3.30;;;31.10;99.90;;;;;;5030989;28;20080;-49
2023/08/19 11:21:44;;;;;;;6.00;3.97;;;31.20;99.90;;;;;;5031269;28;20031;-51
2023/08/19 11:24:11;;;;;;;8.57;3.40;;;31.80;99.90;;;;;;5031268;28;20061;-50
2023/08/19 11:26:42;;;;;;;5.38;3.63;;;31.40;99.90;;;;;;5031335;28;20048;-48
2023/08/19 11:29:08;;;;;;;7.18;4.28;;;31.40;99.90;;;;;;5031075;28;20052;-49
2023/08/19 11:31:35;;;;;;;7.70;4.78;;;31.40;99.90;;;;;;5031104;28;20061;-51
2023/08/19 11:34:08;;;;;;;6.10;4.22;;;31.40;99.90;;;;;;5030577;28;20503;-58
2023/08/19 11:36:38;;;;;;;11.32;3.95;;;31.10;99.90;;;;;;5030970;28;20047;-50
2023/08/19 11:39:05;;;;;;;4.15;3.60;;;31.00;99.90;;;;;;5031176;28;20028;-52
2023/08/19 11:41:32;;;;;;;7.47;3.80;;;30.90;99.90;;;;;;5030754;28;20026;-49
2023/08/19 11:43:58;;;;;;;8.07;4.40;;;30.70;99.90;;;;;;5030801;28;20126;-49
2023/08/19 11:46:31;;;;;;;7.75;4.00;;;30.70;99.90;;;;;;5031209;28;20026;-64
2023/08/19 11:48:58;;;;;;;5.95;3.70;;;30.70;99.90;;;;;;5028091;28;20444;-53
2023/08/19 11:51:25;;;;;;;5.32;3.90;;;30.60;99.90;;;;;;5031061;28;20029;-48
2023/08/19 11:53:53;;;;;;;8.70;3.88;;;30.50;99.90;;;;;;5031033;28;20033;-51
2023/08/19 11:56:20;;;;;;;11.98;4.63;;;30.50;99.90;;;;;;5031306;28;20105;-50
2023/08/19 11:58:50;;;;;;;4.43;3.97;;;30.50;99.90;;;;;;5030706;28;20029;-48
2023/08/19 12:01:20;;;;;;;7.50;4.35;;;30.40;99.90;;;;;;5030650;28;20033;-48
2023/08/19 12:03:51;;;;;;;7.53;4.60;;;30.60;99.90;;;;;;5030664;28;20029;-50
2023/08/19 12:06:17;;;;;;;7.35;4.35;;;30.40;99.90;;;;;;5030999;28;20105;-53
2023/08/19 12:08:45;;;;;;;5.25;4.07;;;30.30;99.90;;;;;;5029914;28;20037;-51
2023/08/19 12:11:11;;;;;;;7.88;4.28;;;30.30;99.90;;;;;;5030527;28;20037;-50
2023/08/19 12:13:38;;;;;;;9.65;4.47;;;30.20;99.90;;;;;;5031037;28;20488;-53
2023/08/19 12:16:05;;;;;;;9.07;4.50;;;30.20;99.90;;;;;;5029538;28;20091;-53
2023/08/19 12:18:32;;;;;;;7.22;4.82;;;30.00;99.90;;;;;;5028567;28;20029;-54
2023/08/19 12:20:59;;;;;;;10.02;4.63;;;29.80;99.90;;;;;;5029903;28;20498;-54
2023/08/19 12:23:24;;;;;;;7.72;4.35;;;29.70;99.90;;;;;;5029659;28;20097;-52
2023/08/19 12:25:55;;;;;;;5.80;4.55;;;29.50;99.90;;;;;;5030697;28;20100;-52
2023/08/19 12:28:22;;;;;;;11.57;5.20;;;29.40;99.90;;;;;;5030834;28;20045;-50
2023/08/19 12:30:49;;;;;;;6.57;4.70;;;29.40;99.90;;;;;;5031480;28;20022;-50
2023/08/19 12:33:15;;;;;;;7.30;5.13;;;29.20;99.90;;;;;;5034934;28;20048;-52
2023/08/19 12:35:42;;;;;;;6.05;5.00;;;29.10;99.90;;;;;;5034290;28;20033;-48
2023/08/19 12:38:08;;;;;;;11.57;5.35;;;29.10;99.90;;;;;;5034212;28;20104;-48
2023/08/19 12:40:35;;;;;;;10.80;4.72;;;29.00;99.90;;;;;;5033841;28;20029;-49
2023/08/19 12:43:01;;;;;;;11.18;4.30;;;29.00;99.90;;;;;;5033586;28;20029;-49